sensor_id;sensor_type;location;lat;lon;timestamp;P1;durP1;ratioP1;P2;durP2;ratioP2
48161;SDS011;33950;48.154;16.316;2022-12-11T00:00:46;74.30;;;25.08;;
48161;SDS011;33950;48.154;16.316;2022-12-11T00:03:32;78.25;;;26.38;;
48161;SDS011;33950;48.154;16.316;2022-12-11T00:06:20;79.65;;;27.50;;
48161;SDS011;33950;48.154;16.316;2022-12-11T00:09:07;68.05;;;23.73;;
48161;SDS011;33950;48.154;16.316;2022-12-11T00:11:54;86.53;;;27.40;;
48161;SDS011;33950;48.154;16.316;2022-12-11T00:14:40;76.63;;;25.40;;
48161;SDS011;33950;48.154;16.316;2022-12-11T00:17:26;69.28;;;23.63;;
48161;SDS011;33950;48.154;16.316;2022-12-11T00:20:12;69.50;;;23.20;;
48161;SDS011;33950;48.154;16.316;2022-12-11T00:23:00;73.28;;;24.23;;
48161;SDS011;33950;48.154;16.316;2022-12-11T00:25:46;72.72;;;24.77;;
48161;SDS011;33950;48.154;16.316;2022-12-11T00:28:32;69.38;;;25.02;;
48161;SDS011;33950;48.154;16.316;2022-12-11T00:31:19;83.07;;;25.77;;
48161;SDS011;33950;48.154;16.316;2022-12-11T00:34:06;82.28;;;25.55;;
48161;SDS011;33950;48.154;16.316;2022-12-11T00:36:52;78.20;;;25.45;;
48161;SDS011;33950;48.154;16.316;2022-12-11T00:39:40;64.07;;;23.15;;
48161;SDS011;33950;48.154;16.316;2022-12-11T00:42:26;67.32;;;23.55;;
48161;SDS011;33950;48.154;16.316;2022-12-11T00:45:12;69.32;;;23.83;;
48161;SDS011;33950;48.154;16.316;2022-12-11T00:47:58;61.38;;;22.80;;
48161;SDS011;33950;48.154;16.316;2022-12-11T00:50:44;60.25;;;21.27;;
48161;SDS011;33950;48.154;16.316;2022-12-11T00:53:31;59.00;;;21.00;;
48161;SDS011;33950;48.154;16.316;2022-12-11T00:56:19;60.45;;;22.50;;
48161;SDS011;33950;48.154;16.316;2022-12-11T00:59:08;50.75;;;21.50;;
48161;SDS011;33950;48.154;16.316;2022-12-11T01:01:54;61.63;;;21.90;;
48161;SDS011;33950;48.154;16.316;2022-12-11T01:04:41;57.78;;;21.50;;
48161;SDS011;33950;48.154;16.316;2022-12-11T01:07:27;64.05;;;22.45;;
48161;SDS011;33950;48.154;16.316;2022-12-11T01:10:13;68.07;;;23.05;;
48161;SDS011;33950;48.154;16.316;2022-12-11T01:13:10;62.17;;;21.42;;
48161;SDS011;33950;48.154;16.316;2022-12-11T01:15:56;57.83;;;21.40;;
48161;SDS011;33950;48.154;16.316;2022-12-11T01:18:42;57.75;;;21.15;;
48161;SDS011;33950;48.154;16.316;2022-12-11T01:21:28;52.45;;;19.10;;
48161;SDS011;33950;48.154;16.316;2022-12-11T01:24:15;54.40;;;19.38;;
48161;SDS011;33950;48.154;16.316;2022-12-11T01:27:01;57.08;;;20.90;;
48161;SDS011;33950;48.154;16.316;2022-12-11T01:29:48;52.72;;;19.33;;
48161;SDS011;33950;48.154;16.316;2022-12-11T01:32:35;49.85;;;18.35;;
48161;SDS011;33950;48.154;16.316;2022-12-11T01:35:21;60.85;;;20.98;;
48161;SDS011;33950;48.154;16.316;2022-12-11T01:38:08;57.22;;;20.00;;
48161;SDS011;33950;48.154;16.316;2022-12-11T01:40:54;58.10;;;19.95;;
48161;SDS011;33950;48.154;16.316;2022-12-11T01:44:00;57.63;;;21.48;;
48161;SDS011;33950;48.154;16.316;2022-12-11T01:46:50;54.75;;;21.27;;
48161;SDS011;33950;48.154;16.316;2022-12-11T01:49:36;52.00;;;18.73;;
48161;SDS011;33950;48.154;16.316;2022-12-11T01:52:24;60.10;;;20.95;;
48161;SDS011;33950;48.154;16.316;2022-12-11T01:55:10;58.28;;;21.38;;
48161;SDS011;33950;48.154;16.316;2022-12-11T01:57:57;53.78;;;20.58;;
48161;SDS011;33950;48.154;16.316;2022-12-11T02:00:43;49.80;;;17.80;;
48161;SDS011;33950;48.154;16.316;2022-12-11T02:03:31;52.92;;;18.88;;
48161;SDS011;33950;48.154;16.316;2022-12-11T02:06:27;54.80;;;18.90;;
48161;SDS011;33950;48.154;16.316;2022-12-11T02:09:16;52.28;;;18.27;;
48161;SDS011;33950;48.154;16.316;2022-12-11T02:12:05;48.42;;;17.92;;
48161;SDS011;33950;48.154;16.316;2022-12-11T02:15:01;48.08;;;16.90;;
48161;SDS011;33950;48.154;16.316;2022-12-11T02:17:57;50.10;;;20.20;;
48161;SDS011;33950;48.154;16.316;2022-12-11T02:20:54;48.05;;;17.92;;
48161;SDS011;33950;48.154;16.316;2022-12-11T02:23:50;41.55;;;14.93;;
48161;SDS011;33950;48.154;16.316;2022-12-11T02:26:54;57.95;;;19.10;;
48161;SDS011;33950;48.154;16.316;2022-12-11T02:30:05;48.65;;;16.30;;
48161;SDS011;33950;48.154;16.316;2022-12-11T02:32:54;47.97;;;17.52;;
48161;SDS011;33950;48.154;16.316;2022-12-11T02:35:41;53.80;;;18.02;;
48161;SDS011;33950;48.154;16.316;2022-12-11T02:38:30;46.47;;;16.48;;
48161;SDS011;33950;48.154;16.316;2022-12-11T02:41:19;51.90;;;18.67;;
48161;SDS011;33950;48.154;16.316;2022-12-11T02:44:07;52.30;;;17.23;;
48161;SDS011;33950;48.154;16.316;2022-12-11T02:46:58;47.38;;;16.95;;
48161;SDS011;33950;48.154;16.316;2022-12-11T02:49:45;45.65;;;17.90;;
48161;SDS011;33950;48.154;16.316;2022-12-11T02:52:34;46.75;;;16.33;;
48161;SDS011;33950;48.154;16.316;2022-12-11T02:55:23;41.10;;;15.68;;
48161;SDS011;33950;48.154;16.316;2022-12-11T02:58:13;49.00;;;19.58;;
48161;SDS011;33950;48.154;16.316;2022-12-11T03:01:02;41.92;;;15.82;;
48161;SDS011;33950;48.154;16.316;2022-12-11T03:03:50;38.88;;;15.02;;
48161;SDS011;33950;48.154;16.316;2022-12-11T03:06:38;34.28;;;13.98;;
48161;SDS011;33950;48.154;16.316;2022-12-11T03:09:29;38.10;;;13.98;;
48161;SDS011;33950;48.154;16.316;2022-12-11T03:12:17;37.03;;;14.65;;
48161;SDS011;33950;48.154;16.316;2022-12-11T03:15:08;38.85;;;14.18;;
48161;SDS011;33950;48.154;16.316;2022-12-11T03:17:59;35.08;;;12.85;;
48161;SDS011;33950;48.154;16.316;2022-12-11T03:20:56;32.45;;;13.07;;
48161;SDS011;33950;48.154;16.316;2022-12-11T03:23:50;33.20;;;13.30;;
48161;SDS011;33950;48.154;16.316;2022-12-11T03:26:43;32.25;;;13.00;;
48161;SDS011;33950;48.154;16.316;2022-12-11T03:29:33;29.45;;;12.27;;
48161;SDS011;33950;48.154;16.316;2022-12-11T03:32:23;30.48;;;10.32;;
48161;SDS011;33950;48.154;16.316;2022-12-11T03:35:13;33.40;;;11.85;;
48161;SDS011;33950;48.154;16.316;2022-12-11T03:38:05;35.80;;;13.00;;
48161;SDS011;33950;48.154;16.316;2022-12-11T03:40:55;33.50;;;11.85;;
48161;SDS011;33950;48.154;16.316;2022-12-11T03:43:45;27.52;;;11.50;;
48161;SDS011;33950;48.154;16.316;2022-12-11T03:46:34;29.13;;;11.05;;
48161;SDS011;33950;48.154;16.316;2022-12-11T03:49:24;29.17;;;11.85;;
48161;SDS011;33950;48.154;16.316;2022-12-11T03:52:12;29.77;;;11.80;;
48161;SDS011;33950;48.154;16.316;2022-12-11T03:55:02;35.20;;;13.73;;
48161;SDS011;33950;48.154;16.316;2022-12-11T03:57:49;30.10;;;12.30;;
48161;SDS011;33950;48.154;16.316;2022-12-11T04:00:36;28.30;;;11.80;;
48161;SDS011;33950;48.154;16.316;2022-12-11T04:03:22;29.90;;;10.48;;
48161;SDS011;33950;48.154;16.316;2022-12-11T04:06:09;34.13;;;12.20;;
48161;SDS011;33950;48.154;16.316;2022-12-11T04:08:55;28.35;;;12.30;;
48161;SDS011;33950;48.154;16.316;2022-12-11T04:11:42;35.75;;;12.63;;
48161;SDS011;33950;48.154;16.316;2022-12-11T04:14:28;37.35;;;14.05;;
48161;SDS011;33950;48.154;16.316;2022-12-11T04:17:33;34.25;;;12.73;;
48161;SDS011;33950;48.154;16.316;2022-12-11T04:20:39;37.13;;;13.05;;
48161;SDS011;33950;48.154;16.316;2022-12-11T04:23:44;35.47;;;13.63;;
48161;SDS011;33950;48.154;16.316;2022-12-11T04:26:50;39.90;;;14.93;;
48161;SDS011;33950;48.154;16.316;2022-12-11T04:29:36;37.33;;;14.73;;
48161;SDS011;33950;48.154;16.316;2022-12-11T04:32:22;34.88;;;14.15;;
48161;SDS011;33950;48.154;16.316;2022-12-11T04:35:09;33.60;;;13.23;;
48161;SDS011;33950;48.154;16.316;2022-12-11T04:37:56;34.55;;;14.70;;
48161;SDS011;33950;48.154;16.316;2022-12-11T04:40:42;32.75;;;13.82;;
48161;SDS011;33950;48.154;16.316;2022-12-11T04:43:30;34.50;;;14.15;;
48161;SDS011;33950;48.154;16.316;2022-12-11T04:46:17;39.90;;;13.13;;
48161;SDS011;33950;48.154;16.316;2022-12-11T04:49:05;38.75;;;14.52;;
48161;SDS011;33950;48.154;16.316;2022-12-11T04:51:51;32.85;;;14.32;;
48161;SDS011;33950;48.154;16.316;2022-12-11T04:54:37;31.17;;;11.38;;
48161;SDS011;33950;48.154;16.316;2022-12-11T04:57:23;28.38;;;11.68;;
48161;SDS011;33950;48.154;16.316;2022-12-11T05:00:11;29.70;;;11.38;;
48161;SDS011;33950;48.154;16.316;2022-12-11T05:02:58;32.00;;;11.77;;
48161;SDS011;33950;48.154;16.316;2022-12-11T05:05:46;28.17;;;11.95;;
48161;SDS011;33950;48.154;16.316;2022-12-11T05:08:33;32.28;;;13.48;;
48161;SDS011;33950;48.154;16.316;2022-12-11T05:11:21;32.10;;;12.73;;
48161;SDS011;33950;48.154;16.316;2022-12-11T05:14:07;28.80;;;12.27;;
48161;SDS011;33950;48.154;16.316;2022-12-11T05:16:54;32.40;;;11.70;;
48161;SDS011;33950;48.154;16.316;2022-12-11T05:19:40;32.58;;;13.50;;
48161;SDS011;33950;48.154;16.316;2022-12-11T05:22:28;34.60;;;11.88;;
48161;SDS011;33950;48.154;16.316;2022-12-11T05:25:15;26.58;;;10.65;;
48161;SDS011;33950;48.154;16.316;2022-12-11T05:28:01;32.22;;;13.02;;
48161;SDS011;33950;48.154;16.316;2022-12-11T05:30:47;33.22;;;13.80;;
48161;SDS011;33950;48.154;16.316;2022-12-11T05:33:34;35.53;;;13.45;;
48161;SDS011;33950;48.154;16.316;2022-12-11T05:36:22;38.78;;;15.27;;
48161;SDS011;33950;48.154;16.316;2022-12-11T05:39:09;33.92;;;11.25;;
48161;SDS011;33950;48.154;16.316;2022-12-11T05:41:56;37.60;;;14.23;;
48161;SDS011;33950;48.154;16.316;2022-12-11T05:44:42;36.05;;;14.25;;
48161;SDS011;33950;48.154;16.316;2022-12-11T05:47:29;31.23;;;13.10;;
48161;SDS011;33950;48.154;16.316;2022-12-11T05:50:17;41.28;;;15.32;;
48161;SDS011;33950;48.154;16.316;2022-12-11T05:53:03;34.53;;;13.18;;
48161;SDS011;33950;48.154;16.316;2022-12-11T05:55:50;34.40;;;13.88;;
48161;SDS011;33950;48.154;16.316;2022-12-11T05:58:36;34.78;;;14.65;;
48161;SDS011;33950;48.154;16.316;2022-12-11T06:01:23;42.10;;;16.08;;
48161;SDS011;33950;48.154;16.316;2022-12-11T06:04:10;42.45;;;15.73;;
48161;SDS011;33950;48.154;16.316;2022-12-11T06:06:59;35.80;;;13.80;;
48161;SDS011;33950;48.154;16.316;2022-12-11T06:09:45;35.63;;;13.75;;
48161;SDS011;33950;48.154;16.316;2022-12-11T06:12:31;30.48;;;13.18;;
48161;SDS011;33950;48.154;16.316;2022-12-11T06:15:17;34.17;;;13.30;;
48161;SDS011;33950;48.154;16.316;2022-12-11T06:18:03;33.53;;;13.88;;
48161;SDS011;33950;48.154;16.316;2022-12-11T06:20:49;31.08;;;12.85;;
48161;SDS011;33950;48.154;16.316;2022-12-11T06:23:36;39.65;;;13.55;;
48161;SDS011;33950;48.154;16.316;2022-12-11T06:26:22;34.45;;;13.73;;
48161;SDS011;33950;48.154;16.316;2022-12-11T06:29:09;31.90;;;12.52;;
48161;SDS011;33950;48.154;16.316;2022-12-11T06:31:55;28.05;;;11.75;;
48161;SDS011;33950;48.154;16.316;2022-12-11T06:34:41;30.35;;;12.02;;
48161;SDS011;33950;48.154;16.316;2022-12-11T06:37:27;31.63;;;13.00;;
48161;SDS011;33950;48.154;16.316;2022-12-11T06:40:14;27.38;;;11.98;;
48161;SDS011;33950;48.154;16.316;2022-12-11T06:43:01;28.80;;;12.18;;
48161;SDS011;33950;48.154;16.316;2022-12-11T06:45:47;34.92;;;13.88;;
48161;SDS011;33950;48.154;16.316;2022-12-11T06:48:34;29.27;;;10.10;;
48161;SDS011;33950;48.154;16.316;2022-12-11T06:51:20;25.50;;;10.88;;
48161;SDS011;33950;48.154;16.316;2022-12-11T06:54:07;26.48;;;10.85;;
48161;SDS011;33950;48.154;16.316;2022-12-11T06:56:54;24.80;;;11.10;;
48161;SDS011;33950;48.154;16.316;2022-12-11T06:59:40;26.88;;;11.52;;
48161;SDS011;33950;48.154;16.316;2022-12-11T07:02:27;23.23;;;10.35;;
48161;SDS011;33950;48.154;16.316;2022-12-11T07:05:13;56.55;;;12.18;;
48161;SDS011;33950;48.154;16.316;2022-12-11T07:07:59;25.65;;;10.35;;
48161;SDS011;33950;48.154;16.316;2022-12-11T07:10:45;25.27;;;10.48;;
48161;SDS011;33950;48.154;16.316;2022-12-11T07:13:33;25.95;;;10.52;;
48161;SDS011;33950;48.154;16.316;2022-12-11T07:16:20;22.42;;;10.43;;
48161;SDS011;33950;48.154;16.316;2022-12-11T07:19:06;24.48;;;10.57;;
48161;SDS011;33950;48.154;16.316;2022-12-11T07:21:52;24.90;;;10.48;;
48161;SDS011;33950;48.154;16.316;2022-12-11T07:24:38;26.85;;;10.98;;
48161;SDS011;33950;48.154;16.316;2022-12-11T07:27:24;21.20;;;9.55;;
48161;SDS011;33950;48.154;16.316;2022-12-11T07:30:12;22.25;;;9.48;;
48161;SDS011;33950;48.154;16.316;2022-12-11T07:32:59;21.17;;;9.35;;
48161;SDS011;33950;48.154;16.316;2022-12-11T07:35:45;19.92;;;8.73;;
48161;SDS011;33950;48.154;16.316;2022-12-11T07:38:32;21.35;;;9.43;;
48161;SDS011;33950;48.154;16.316;2022-12-11T07:41:18;27.50;;;10.60;;
48161;SDS011;33950;48.154;16.316;2022-12-11T07:44:04;22.58;;;9.98;;
48161;SDS011;33950;48.154;16.316;2022-12-11T07:46:52;22.17;;;8.73;;
48161;SDS011;33950;48.154;16.316;2022-12-11T07:49:38;23.70;;;10.48;;
48161;SDS011;33950;48.154;16.316;2022-12-11T07:52:24;23.08;;;10.43;;
48161;SDS011;33950;48.154;16.316;2022-12-11T07:55:10;15.85;;;8.10;;
48161;SDS011;33950;48.154;16.316;2022-12-11T07:57:57;22.27;;;9.85;;
48161;SDS011;33950;48.154;16.316;2022-12-11T08:00:43;20.13;;;9.25;;
48161;SDS011;33950;48.154;16.316;2022-12-11T08:03:31;25.55;;;8.93;;
48161;SDS011;33950;48.154;16.316;2022-12-11T08:06:17;20.85;;;8.27;;
48161;SDS011;33950;48.154;16.316;2022-12-11T08:09:06;21.45;;;9.48;;
48161;SDS011;33950;48.154;16.316;2022-12-11T08:11:55;18.50;;;8.23;;
48161;SDS011;33950;48.154;16.316;2022-12-11T08:14:42;18.05;;;8.15;;
48161;SDS011;33950;48.154;16.316;2022-12-11T08:17:28;19.30;;;8.65;;
48161;SDS011;33950;48.154;16.316;2022-12-11T08:20:15;19.95;;;8.40;;
48161;SDS011;33950;48.154;16.316;2022-12-11T08:23:01;17.30;;;8.50;;
48161;SDS011;33950;48.154;16.316;2022-12-11T08:25:47;18.23;;;8.88;;
48161;SDS011;33950;48.154;16.316;2022-12-11T08:28:33;18.10;;;8.30;;
48161;SDS011;33950;48.154;16.316;2022-12-11T08:31:20;20.95;;;8.32;;
48161;SDS011;33950;48.154;16.316;2022-12-11T08:34:06;17.17;;;7.75;;
48161;SDS011;33950;48.154;16.316;2022-12-11T08:36:54;18.08;;;7.85;;
48161;SDS011;33950;48.154;16.316;2022-12-11T08:39:40;16.60;;;7.65;;
48161;SDS011;33950;48.154;16.316;2022-12-11T08:42:27;17.27;;;7.82;;
48161;SDS011;33950;48.154;16.316;2022-12-11T08:45:13;16.48;;;7.82;;
48161;SDS011;33950;48.154;16.316;2022-12-11T08:48:00;18.98;;;9.00;;
48161;SDS011;33950;48.154;16.316;2022-12-11T08:50:46;18.17;;;8.20;;
48161;SDS011;33950;48.154;16.316;2022-12-11T08:53:33;17.23;;;8.13;;
48161;SDS011;33950;48.154;16.316;2022-12-11T08:56:19;18.20;;;7.97;;
48161;SDS011;33950;48.154;16.316;2022-12-11T08:59:08;20.60;;;8.60;;
48161;SDS011;33950;48.154;16.316;2022-12-11T09:01:54;20.73;;;9.15;;
48161;SDS011;33950;48.154;16.316;2022-12-11T09:04:40;19.52;;;8.27;;
48161;SDS011;33950;48.154;16.316;2022-12-11T09:07:26;18.95;;;8.70;;
48161;SDS011;33950;48.154;16.316;2022-12-11T09:10:14;17.02;;;8.25;;
48161;SDS011;33950;48.154;16.316;2022-12-11T09:13:00;18.85;;;8.27;;
48161;SDS011;33950;48.154;16.316;2022-12-11T09:15:46;17.52;;;8.32;;
48161;SDS011;33950;48.154;16.316;2022-12-11T09:18:32;19.35;;;8.25;;
48161;SDS011;33950;48.154;16.316;2022-12-11T09:21:19;18.05;;;8.88;;
48161;SDS011;33950;48.154;16.316;2022-12-11T09:24:07;18.75;;;7.30;;
48161;SDS011;33950;48.154;16.316;2022-12-11T09:26:56;17.15;;;8.02;;
48161;SDS011;33950;48.154;16.316;2022-12-11T09:29:42;20.33;;;7.30;;
48161;SDS011;33950;48.154;16.316;2022-12-11T09:32:28;19.00;;;8.45;;
48161;SDS011;33950;48.154;16.316;2022-12-11T09:35:14;17.73;;;7.82;;
48161;SDS011;33950;48.154;16.316;2022-12-11T09:38:00;16.20;;;7.47;;
48161;SDS011;33950;48.154;16.316;2022-12-11T09:40:47;18.75;;;8.48;;
48161;SDS011;33950;48.154;16.316;2022-12-11T09:43:37;24.90;;;8.88;;
48161;SDS011;33950;48.154;16.316;2022-12-11T09:49:16;21.35;;;8.57;;
48161;SDS011;33950;48.154;16.316;2022-12-11T09:52:10;17.60;;;8.57;;
48161;SDS011;33950;48.154;16.316;2022-12-11T09:54:59;19.88;;;8.50;;
48161;SDS011;33950;48.154;16.316;2022-12-11T09:57:49;20.27;;;8.73;;
48161;SDS011;33950;48.154;16.316;2022-12-11T10:00:42;18.92;;;8.73;;
48161;SDS011;33950;48.154;16.316;2022-12-11T10:03:35;18.48;;;8.20;;
48161;SDS011;33950;48.154;16.316;2022-12-11T10:06:35;23.73;;;8.95;;
48161;SDS011;33950;48.154;16.316;2022-12-11T10:09:29;18.65;;;7.72;;
48161;SDS011;33950;48.154;16.316;2022-12-11T10:12:25;19.60;;;8.40;;
48161;SDS011;33950;48.154;16.316;2022-12-11T10:15:24;21.63;;;7.85;;
48161;SDS011;33950;48.154;16.316;2022-12-11T10:18:17;13.48;;;7.20;;
48161;SDS011;33950;48.154;16.316;2022-12-11T10:21:07;24.95;;;9.20;;
48161;SDS011;33950;48.154;16.316;2022-12-11T10:23:56;20.52;;;9.00;;
48161;SDS011;33950;48.154;16.316;2022-12-11T10:26:44;16.25;;;8.52;;
48161;SDS011;33950;48.154;16.316;2022-12-11T10:29:31;18.27;;;8.45;;
48161;SDS011;33950;48.154;16.316;2022-12-11T10:32:20;22.83;;;8.18;;
48161;SDS011;33950;48.154;16.316;2022-12-11T10:35:11;17.05;;;6.95;;
48161;SDS011;33950;48.154;16.316;2022-12-11T10:38:11;11.65;;;5.45;;
48161;SDS011;33950;48.154;16.316;2022-12-11T10:41:00;12.02;;;5.65;;
48161;SDS011;33950;48.154;16.316;2022-12-11T10:43:49;14.23;;;7.10;;
48161;SDS011;33950;48.154;16.316;2022-12-11T10:46:36;16.77;;;7.13;;
48161;SDS011;33950;48.154;16.316;2022-12-11T10:49:23;15.18;;;6.68;;
48161;SDS011;33950;48.154;16.316;2022-12-11T10:52:16;18.58;;;7.25;;
48161;SDS011;33950;48.154;16.316;2022-12-11T10:55:06;17.05;;;7.40;;
48161;SDS011;33950;48.154;16.316;2022-12-11T10:58:04;15.73;;;7.45;;
48161;SDS011;33950;48.154;16.316;2022-12-11T11:00:59;16.85;;;7.35;;
48161;SDS011;33950;48.154;16.316;2022-12-11T11:03:53;17.50;;;6.97;;
48161;SDS011;33950;48.154;16.316;2022-12-11T11:06:41;22.30;;;8.20;;
48161;SDS011;33950;48.154;16.316;2022-12-11T11:09:30;13.90;;;6.13;;
48161;SDS011;33950;48.154;16.316;2022-12-11T11:12:21;17.38;;;6.30;;
48161;SDS011;33950;48.154;16.316;2022-12-11T11:15:10;19.70;;;7.22;;
48161;SDS011;33950;48.154;16.316;2022-12-11T11:17:59;18.35;;;7.68;;
48161;SDS011;33950;48.154;16.316;2022-12-11T11:20:53;22.38;;;8.57;;
48161;SDS011;33950;48.154;16.316;2022-12-11T11:23:40;16.25;;;7.38;;
48161;SDS011;33950;48.154;16.316;2022-12-11T11:26:27;19.65;;;8.13;;
48161;SDS011;33950;48.154;16.316;2022-12-11T11:29:21;17.58;;;7.47;;
48161;SDS011;33950;48.154;16.316;2022-12-11T11:32:13;15.57;;;7.53;;
48161;SDS011;33950;48.154;16.316;2022-12-11T11:35:16;14.02;;;5.95;;
48161;SDS011;33950;48.154;16.316;2022-12-11T11:38:04;17.27;;;7.30;;
48161;SDS011;33950;48.154;16.316;2022-12-11T11:41:08;16.10;;;7.82;;
48161;SDS011;33950;48.154;16.316;2022-12-11T11:44:01;16.13;;;7.55;;
48161;SDS011;33950;48.154;16.316;2022-12-11T11:46:53;17.52;;;7.80;;
48161;SDS011;33950;48.154;16.316;2022-12-11T11:49:46;19.95;;;7.70;;
48161;SDS011;33950;48.154;16.316;2022-12-11T11:52:37;22.02;;;6.80;;
48161;SDS011;33950;48.154;16.316;2022-12-11T11:55:31;18.02;;;7.25;;
48161;SDS011;33950;48.154;16.316;2022-12-11T11:58:25;16.30;;;7.05;;
48161;SDS011;33950;48.154;16.316;2022-12-11T12:01:16;15.45;;;6.93;;
48161;SDS011;33950;48.154;16.316;2022-12-11T12:04:04;15.00;;;6.93;;
48161;SDS011;33950;48.154;16.316;2022-12-11T12:06:59;16.65;;;7.90;;
48161;SDS011;33950;48.154;16.316;2022-12-11T12:10:09;12.85;;;5.90;;
48161;SDS011;33950;48.154;16.316;2022-12-11T12:13:04;13.95;;;5.75;;
48161;SDS011;33950;48.154;16.316;2022-12-11T12:15:55;13.40;;;6.07;;
48161;SDS011;33950;48.154;16.316;2022-12-11T12:18:45;13.05;;;6.10;;
48161;SDS011;33950;48.154;16.316;2022-12-11T12:21:37;12.98;;;5.97;;
48161;SDS011;33950;48.154;16.316;2022-12-11T12:24:28;17.90;;;6.95;;
48161;SDS011;33950;48.154;16.316;2022-12-11T12:27:22;12.13;;;5.50;;
48161;SDS011;33950;48.154;16.316;2022-12-11T12:30:15;14.98;;;6.15;;
48161;SDS011;33950;48.154;16.316;2022-12-11T12:33:10;11.55;;;5.93;;
48161;SDS011;33950;48.154;16.316;2022-12-11T12:36:08;13.85;;;6.10;;
48161;SDS011;33950;48.154;16.316;2022-12-11T12:39:00;18.70;;;7.88;;
48161;SDS011;33950;48.154;16.316;2022-12-11T12:41:52;17.77;;;6.82;;
48161;SDS011;33950;48.154;16.316;2022-12-11T12:44:45;14.43;;;6.63;;
48161;SDS011;33950;48.154;16.316;2022-12-11T12:47:39;12.00;;;5.70;;
48161;SDS011;33950;48.154;16.316;2022-12-11T12:50:31;15.85;;;6.70;;
48161;SDS011;33950;48.154;16.316;2022-12-11T12:53:23;16.95;;;6.60;;
48161;SDS011;33950;48.154;16.316;2022-12-11T12:56:12;13.38;;;5.60;;
48161;SDS011;33950;48.154;16.316;2022-12-11T12:59:00;18.30;;;6.22;;
48161;SDS011;33950;48.154;16.316;2022-12-11T13:01:46;20.83;;;6.22;;
48161;SDS011;33950;48.154;16.316;2022-12-11T13:04:37;14.95;;;6.35;;
48161;SDS011;33950;48.154;16.316;2022-12-11T13:07:26;11.40;;;5.85;;
48161;SDS011;33950;48.154;16.316;2022-12-11T13:10:23;13.07;;;6.13;;
48161;SDS011;33950;48.154;16.316;2022-12-11T13:13:34;11.70;;;6.18;;
48161;SDS011;33950;48.154;16.316;2022-12-11T13:16:25;12.68;;;5.80;;
48161;SDS011;33950;48.154;16.316;2022-12-11T13:19:25;14.07;;;5.70;;
48161;SDS011;33950;48.154;16.316;2022-12-11T13:22:19;14.88;;;5.85;;
48161;SDS011;33950;48.154;16.316;2022-12-11T13:25:16;16.15;;;7.32;;
48161;SDS011;33950;48.154;16.316;2022-12-11T13:28:19;14.20;;;6.18;;
48161;SDS011;33950;48.154;16.316;2022-12-11T13:31:25;17.20;;;8.65;;
48161;SDS011;33950;48.154;16.316;2022-12-11T13:34:17;17.67;;;9.02;;
48161;SDS011;33950;48.154;16.316;2022-12-11T13:37:16;18.17;;;8.63;;
48161;SDS011;33950;48.154;16.316;2022-12-11T13:40:13;19.95;;;7.72;;
48161;SDS011;33950;48.154;16.316;2022-12-11T13:43:04;25.95;;;11.95;;
48161;SDS011;33950;48.154;16.316;2022-12-11T13:45:54;25.58;;;11.45;;
48161;SDS011;33950;48.154;16.316;2022-12-11T13:48:44;26.05;;;12.25;;
48161;SDS011;33950;48.154;16.316;2022-12-11T13:51:33;27.80;;;11.82;;
48161;SDS011;33950;48.154;16.316;2022-12-11T13:54:20;25.50;;;11.00;;
48161;SDS011;33950;48.154;16.316;2022-12-11T13:57:14;35.55;;;13.45;;
48161;SDS011;33950;48.154;16.316;2022-12-11T14:00:02;32.45;;;13.70;;
48161;SDS011;33950;48.154;16.316;2022-12-11T14:02:50;29.15;;;10.65;;
48161;SDS011;33950;48.154;16.316;2022-12-11T14:05:38;32.50;;;13.73;;
48161;SDS011;33950;48.154;16.316;2022-12-11T14:08:28;34.03;;;13.75;;
48161;SDS011;33950;48.154;16.316;2022-12-11T14:11:20;28.40;;;12.48;;
48161;SDS011;33950;48.154;16.316;2022-12-11T14:14:14;27.48;;;12.63;;
48161;SDS011;33950;48.154;16.316;2022-12-11T14:17:03;29.75;;;13.20;;
48161;SDS011;33950;48.154;16.316;2022-12-11T14:19:51;29.60;;;12.70;;
48161;SDS011;33950;48.154;16.316;2022-12-11T14:22:38;31.80;;;13.57;;
48161;SDS011;33950;48.154;16.316;2022-12-11T14:25:25;28.58;;;11.73;;
48161;SDS011;33950;48.154;16.316;2022-12-11T14:28:13;26.02;;;11.32;;
48161;SDS011;33950;48.154;16.316;2022-12-11T14:31:01;29.60;;;11.80;;
48161;SDS011;33950;48.154;16.316;2022-12-11T14:33:50;26.02;;;11.68;;
48161;SDS011;33950;48.154;16.316;2022-12-11T14:36:41;24.08;;;11.73;;
48161;SDS011;33950;48.154;16.316;2022-12-11T14:39:29;26.95;;;11.25;;
48161;SDS011;33950;48.154;16.316;2022-12-11T14:42:18;27.42;;;11.50;;
48161;SDS011;33950;48.154;16.316;2022-12-11T14:45:11;25.85;;;10.82;;
48161;SDS011;33950;48.154;16.316;2022-12-11T14:48:06;27.40;;;11.65;;
48161;SDS011;33950;48.154;16.316;2022-12-11T14:50:57;22.85;;;10.77;;
48161;SDS011;33950;48.154;16.316;2022-12-11T14:53:47;22.95;;;10.70;;
48161;SDS011;33950;48.154;16.316;2022-12-11T14:56:37;26.98;;;10.95;;
48161;SDS011;33950;48.154;16.316;2022-12-11T14:59:23;22.27;;;9.98;;
48161;SDS011;33950;48.154;16.316;2022-12-11T15:02:22;23.50;;;9.95;;
48161;SDS011;33950;48.154;16.316;2022-12-11T15:05:11;22.25;;;9.75;;
48161;SDS011;33950;48.154;16.316;2022-12-11T15:08:00;21.20;;;8.70;;
48161;SDS011;33950;48.154;16.316;2022-12-11T15:10:55;23.63;;;11.05;;
48161;SDS011;33950;48.154;16.316;2022-12-11T15:13:48;22.42;;;9.63;;
48161;SDS011;33950;48.154;16.316;2022-12-11T15:16:37;26.60;;;10.63;;
48161;SDS011;33950;48.154;16.316;2022-12-11T15:19:27;23.95;;;9.77;;
48161;SDS011;33950;48.154;16.316;2022-12-11T15:22:15;18.08;;;9.43;;
48161;SDS011;33950;48.154;16.316;2022-12-11T15:25:02;32.85;;;12.07;;
48161;SDS011;33950;48.154;16.316;2022-12-11T15:27:52;31.52;;;10.85;;
48161;SDS011;33950;48.154;16.316;2022-12-11T15:30:39;22.20;;;9.98;;
48161;SDS011;33950;48.154;16.316;2022-12-11T15:33:25;25.75;;;11.27;;
48161;SDS011;33950;48.154;16.316;2022-12-11T15:36:20;22.50;;;10.38;;
48161;SDS011;33950;48.154;16.316;2022-12-11T15:39:09;27.10;;;11.68;;
48161;SDS011;33950;48.154;16.316;2022-12-11T15:41:55;26.35;;;10.77;;
48161;SDS011;33950;48.154;16.316;2022-12-11T15:44:43;24.00;;;11.23;;
48161;SDS011;33950;48.154;16.316;2022-12-11T15:47:29;22.75;;;10.50;;
48161;SDS011;33950;48.154;16.316;2022-12-11T15:50:16;27.05;;;11.25;;
48161;SDS011;33950;48.154;16.316;2022-12-11T15:53:03;25.08;;;10.85;;
48161;SDS011;33950;48.154;16.316;2022-12-11T15:55:50;22.80;;;10.65;;
48161;SDS011;33950;48.154;16.316;2022-12-11T15:58:37;24.42;;;10.65;;
48161;SDS011;33950;48.154;16.316;2022-12-11T16:01:24;24.52;;;11.30;;
48161;SDS011;33950;48.154;16.316;2022-12-11T16:04:10;23.23;;;11.18;;
48161;SDS011;33950;48.154;16.316;2022-12-11T16:06:56;22.08;;;10.55;;
48161;SDS011;33950;48.154;16.316;2022-12-11T16:09:43;22.48;;;10.43;;
48161;SDS011;33950;48.154;16.316;2022-12-11T16:12:29;28.17;;;12.20;;
48161;SDS011;33950;48.154;16.316;2022-12-11T16:15:15;25.02;;;11.98;;
48161;SDS011;33950;48.154;16.316;2022-12-11T16:18:04;28.15;;;10.43;;
48161;SDS011;33950;48.154;16.316;2022-12-11T16:20:52;28.05;;;10.98;;
48161;SDS011;33950;48.154;16.316;2022-12-11T16:23:38;23.85;;;9.88;;